Preview of NWS' New Version of Forecast
This preview is not operational and should not be used for support decisions.

Terminal Aerodrome Forecast (TAF)

Issued by National Weather Service (NWS)

                            
000
FTUS42 KMFL 142114 AAB
TAFMIA
TAF AMD
KMIA 142114Z 1421/1524 12007KT P6SM SCT035
     FM150300 11007KT P6SM FEW035
     FM151200 10011KT P6SM SCT025
     FM152300 09004KT P6SM SCT035=